sensor_id;sensor_type;location;lat;lon;timestamp;pressure;altitude;pressure_sealevel;temperature;humidity
16690;BME280;8458;52.220;9.884;2023-05-07T00:02:21;101179.84;;;11.19;98.83
16690;BME280;8458;52.220;9.884;2023-05-07T00:04:48;101177.66;;;11.21;98.82
16690;BME280;8458;52.220;9.884;2023-05-07T00:07:15;101174.97;;;11.26;98.42
16690;BME280;8458;52.220;9.884;2023-05-07T00:09:42;101176.63;;;11.27;98.42
16690;BME280;8458;52.220;9.884;2023-05-07T00:12:08;101168.91;;;11.29;98.35
16690;BME280;8458;52.220;9.884;2023-05-07T00:14:35;101170.03;;;11.34;98.00
16690;BME280;8458;52.220;9.884;2023-05-07T00:17:01;101177.53;;;11.33;97.68
16690;BME280;8458;52.220;9.884;2023-05-07T00:19:29;101168.91;;;11.29;98.11
16690;BME280;8458;52.220;9.884;2023-05-07T00:21:57;101176.09;;;11.30;97.60
16690;BME280;8458;52.220;9.884;2023-05-07T00:24:23;101165.88;;;11.31;97.82
16690;BME280;8458;52.220;9.884;2023-05-07T00:26:50;101159.44;;;11.30;97.61
16690;BME280;8458;52.220;9.884;2023-05-07T00:29:17;101166.03;;;11.24;97.79
16690;BME280;8458;52.220;9.884;2023-05-07T00:31:44;101145.47;;;11.20;97.98
16690;BME280;8458;52.220;9.884;2023-05-07T00:34:10;101148.75;;;11.17;98.27
16690;BME280;8458;52.220;9.884;2023-05-07T00:36:38;101149.25;;;11.14;98.22
16690;BME280;8458;52.220;9.884;2023-05-07T00:39:04;101146.41;;;11.09;98.57
16690;BME280;8458;52.220;9.884;2023-05-07T00:41:32;101129.13;;;11.02;98.87
16690;BME280;8458;52.220;9.884;2023-05-07T00:43:58;101140.06;;;10.91;99.51
16690;BME280;8458;52.220;9.884;2023-05-07T00:46:25;101132.78;;;10.85;100.00
16690;BME280;8458;52.220;9.884;2023-05-07T00:48:53;101143.19;;;10.78;100.00
16690;BME280;8458;52.220;9.884;2023-05-07T00:51:20;101143.63;;;10.70;100.00
16690;BME280;8458;52.220;9.884;2023-05-07T00:53:48;101142.81;;;10.69;100.00
16690;BME280;8458;52.220;9.884;2023-05-07T00:56:14;101146.34;;;10.65;100.00
16690;BME280;8458;52.220;9.884;2023-05-07T00:58:41;101140.81;;;10.65;100.00
16690;BME280;8458;52.220;9.884;2023-05-07T01:01:07;101150.78;;;10.66;100.00
16690;BME280;8458;52.220;9.884;2023-05-07T01:03:34;101155.56;;;10.70;100.00
16690;BME280;8458;52.220;9.884;2023-05-07T01:06:01;101153.03;;;10.69;100.00
16690;BME280;8458;52.220;9.884;2023-05-07T01:08:29;101151.44;;;10.73;100.00
16690;BME280;8458;52.220;9.884;2023-05-07T01:10:58;101146.16;;;10.71;100.00
16690;BME280;8458;52.220;9.884;2023-05-07T01:13:25;101150.88;;;10.71;100.00
16690;BME280;8458;52.220;9.884;2023-05-07T01:15:51;101149.69;;;10.67;100.00
16690;BME280;8458;52.220;9.884;2023-05-07T01:18:18;101152.97;;;10.64;100.00
16690;BME280;8458;52.220;9.884;2023-05-07T01:20:45;101161.81;;;10.61;100.00
16690;BME280;8458;52.220;9.884;2023-05-07T01:23:13;101157.34;;;10.59;100.00
16690;BME280;8458;52.220;9.884;2023-05-07T01:25:39;101155.06;;;10.56;100.00
16690;BME280;8458;52.220;9.884;2023-05-07T01:28:06;101160.97;;;10.60;100.00
16690;BME280;8458;52.220;9.884;2023-05-07T01:30:32;101165.66;;;10.59;100.00
16690;BME280;8458;52.220;9.884;2023-05-07T01:33:02;101159.84;;;10.61;100.00
16690;BME280;8458;52.220;9.884;2023-05-07T01:35:36;101153.75;;;10.59;100.00
16690;BME280;8458;52.220;9.884;2023-05-07T01:38:04;101157.44;;;10.65;100.00
16690;BME280;8458;52.220;9.884;2023-05-07T01:40:33;101156.31;;;10.66;100.00
16690;BME280;8458;52.220;9.884;2023-05-07T01:43:00;101156.31;;;10.66;100.00
16690;BME280;8458;52.220;9.884;2023-05-07T01:45:28;101163.00;;;10.65;100.00
16690;BME280;8458;52.220;9.884;2023-05-07T01:47:55;101155.50;;;10.65;100.00
16690;BME280;8458;52.220;9.884;2023-05-07T01:50:22;101160.72;;;10.62;100.00
16690;BME280;8458;52.220;9.884;2023-05-07T01:52:50;101143.47;;;10.59;100.00
16690;BME280;8458;52.220;9.884;2023-05-07T01:55:17;101143.97;;;10.56;100.00
16690;BME280;8458;52.220;9.884;2023-05-07T01:57:45;101147.38;;;10.58;100.00
16690;BME280;8458;52.220;9.884;2023-05-07T02:00:12;101144.59;;;10.58;100.00
16690;BME280;8458;52.220;9.884;2023-05-07T02:02:39;101150.63;;;10.55;100.00
16690;BME280;8458;52.220;9.884;2023-05-07T02:05:06;101147.28;;;10.53;100.00
16690;BME280;8458;52.220;9.884;2023-05-07T02:07:32;101153.59;;;10.49;100.00
16690;BME280;8458;52.220;9.884;2023-05-07T02:09:59;101147.69;;;10.45;100.00
16690;BME280;8458;52.220;9.884;2023-05-07T02:12:25;101156.00;;;10.45;100.00
16690;BME280;8458;52.220;9.884;2023-05-07T02:14:53;101149.88;;;10.43;100.00
16690;BME280;8458;52.220;9.884;2023-05-07T02:17:19;101153.25;;;10.45;100.00
16690;BME280;8458;52.220;9.884;2023-05-07T02:19:46;101154.94;;;10.46;100.00
16690;BME280;8458;52.220;9.884;2023-05-07T02:22:12;101158.78;;;10.45;100.00
16690;BME280;8458;52.220;9.884;2023-05-07T02:24:39;101164.84;;;10.42;100.00
16690;BME280;8458;52.220;9.884;2023-05-07T02:27:05;101179.31;;;10.44;100.00
16690;BME280;8458;52.220;9.884;2023-05-07T02:29:32;101176.53;;;10.44;100.00
16690;BME280;8458;52.220;9.884;2023-05-07T02:31:59;101182.09;;;10.44;100.00
16690;BME280;8458;52.220;9.884;2023-05-07T02:34:26;101184.84;;;10.44;100.00
16690;BME280;8458;52.220;9.884;2023-05-07T02:36:53;101180.97;;;10.45;100.00
16690;BME280;8458;52.220;9.884;2023-05-07T02:39:19;101177.88;;;10.42;100.00
16690;BME280;8458;52.220;9.884;2023-05-07T02:41:45;101179.81;;;10.41;100.00
16690;BME280;8458;52.220;9.884;2023-05-07T02:44:12;101184.84;;;10.44;100.00
16690;BME280;8458;52.220;9.884;2023-05-07T02:46:38;101191.97;;;10.40;100.00
16690;BME280;8458;52.220;9.884;2023-05-07T02:49:06;101186.50;;;10.45;100.00
16690;BME280;8458;52.220;9.884;2023-05-07T02:51:33;101185.69;;;10.45;99.52
16690;BME280;8458;52.220;9.884;2023-05-07T02:53:59;101182.66;;;10.46;99.59
16690;BME280;8458;52.220;9.884;2023-05-07T02:56:26;101182.16;;;10.49;100.00
16690;BME280;8458;52.220;9.884;2023-05-07T02:58:53;101178.56;;;10.49;99.46
16690;BME280;8458;52.220;9.884;2023-05-07T03:01:19;101171.06;;;10.49;98.68
16690;BME280;8458;52.220;9.884;2023-05-07T03:03:46;101171.56;;;10.46;98.77
16690;BME280;8458;52.220;9.884;2023-05-07T03:06:13;101174.84;;;10.43;98.89
16690;BME280;8458;52.220;9.884;2023-05-07T03:08:40;101170.38;;;10.42;98.89
16690;BME280;8458;52.220;9.884;2023-05-07T03:11:07;101169.47;;;10.36;99.19
16690;BME280;8458;52.220;9.884;2023-05-07T03:13:33;101173.06;;;10.37;99.38
16690;BME280;8458;52.220;9.884;2023-05-07T03:16:00;101168.88;;;10.34;99.44
16690;BME280;8458;52.220;9.884;2023-05-07T03:18:26;101167.69;;;10.30;99.46
16690;BME280;8458;52.220;9.884;2023-05-07T03:20:53;101173.38;;;10.23;100.00
16690;BME280;8458;52.220;9.884;2023-05-07T03:23:20;101176.75;;;10.26;100.00
16690;BME280;8458;52.220;9.884;2023-05-07T03:25:47;101167.00;;;10.23;100.00
16690;BME280;8458;52.220;9.884;2023-05-07T03:28:14;101172.19;;;10.19;100.00
16690;BME280;8458;52.220;9.884;2023-05-07T03:30:41;101166.06;;;10.17;100.00
16690;BME280;8458;52.220;9.884;2023-05-07T03:33:07;101159.69;;;10.17;100.00
16690;BME280;8458;52.220;9.884;2023-05-07T03:35:34;101161.13;;;10.19;100.00
16690;BME280;8458;52.220;9.884;2023-05-07T03:38:01;101160.25;;;10.19;100.00
16690;BME280;8458;52.220;9.884;2023-05-07T03:40:28;101157.22;;;10.20;100.00
16690;BME280;8458;52.220;9.884;2023-05-07T03:42:55;101157.72;;;10.17;100.00
16690;BME280;8458;52.220;9.884;2023-05-07T03:45:21;101161.00;;;10.14;100.00
16690;BME280;8458;52.220;9.884;2023-05-07T03:47:48;101159.34;;;10.13;100.00
16690;BME280;8458;52.220;9.884;2023-05-07T03:50:15;101160.44;;;10.12;100.00
16690;BME280;8458;52.220;9.884;2023-05-07T03:52:41;101159.09;;;10.15;100.00
16690;BME280;8458;52.220;9.884;2023-05-07T03:55:08;101165.47;;;10.15;100.00
16690;BME280;8458;52.220;9.884;2023-05-07T03:57:36;101160.44;;;10.12;100.00
16690;BME280;8458;52.220;9.884;2023-05-07T04:00:03;101158.16;;;10.09;100.00
16690;BME280;8458;52.220;9.884;2023-05-07T04:02:30;101156.22;;;10.10;100.00
16690;BME280;8458;52.220;9.884;2023-05-07T04:04:57;101158.06;;;10.04;100.00
16690;BME280;8458;52.220;9.884;2023-05-07T04:07:23;101161.94;;;10.03;100.00
16690;BME280;8458;52.220;9.884;2023-05-07T04:09:50;101160.25;;;10.02;100.00
16690;BME280;8458;52.220;9.884;2023-05-07T04:12:17;101165.19;;;10.00;100.00
16690;BME280;8458;52.220;9.884;2023-05-07T04:14:44;101180.75;;;10.01;100.00
16690;BME280;8458;52.220;9.884;2023-05-07T04:17:11;101180.75;;;10.01;100.00
16690;BME280;8458;52.220;9.884;2023-05-07T04:19:38;101175.09;;;9.96;100.00
16690;BME280;8458;52.220;9.884;2023-05-07T04:22:04;101181.75;;;9.95;100.00
16690;BME280;8458;52.220;9.884;2023-05-07T04:24:31;101173.31;;;9.90;100.00
16690;BME280;8458;52.220;9.884;2023-05-07T04:26:58;101186.56;;;9.87;100.00
16690;BME280;8458;52.220;9.884;2023-05-07T04:29:24;101179.34;;;9.86;100.00
16690;BME280;8458;52.220;9.884;2023-05-07T04:31:52;101189.09;;;9.89;100.00
16690;BME280;8458;52.220;9.884;2023-05-07T04:34:20;101192.13;;;9.87;100.00
16690;BME280;8458;52.220;9.884;2023-05-07T04:36:47;101187.78;;;9.92;100.00
16690;BME280;8458;52.220;9.884;2023-05-07T04:39:13;101187.28;;;9.95;100.00
16690;BME280;8458;52.220;9.884;2023-05-07T04:41:40;101197.88;;;9.98;100.00
16690;BME280;8458;52.220;9.884;2023-05-07T04:44:06;101197.88;;;9.98;100.00
16690;BME280;8458;52.220;9.884;2023-05-07T04:46:34;101201.47;;;9.98;100.00
16690;BME280;8458;52.220;9.884;2023-05-07T04:49:02;101201.72;;;9.97;100.00
16690;BME280;8458;52.220;9.884;2023-05-07T04:51:28;101201.72;;;9.97;100.00
16690;BME280;8458;52.220;9.884;2023-05-07T04:53:55;101205.94;;;9.99;100.00
16690;BME280;8458;52.220;9.884;2023-05-07T04:56:21;101205.06;;;9.99;100.00
16690;BME280;8458;52.220;9.884;2023-05-07T04:58:48;101218.91;;;9.99;100.00
16690;BME280;8458;52.220;9.884;2023-05-07T05:01:14;101219.53;;;10.01;100.00
16690;BME280;8458;52.220;9.884;2023-05-07T05:03:41;101216.66;;;9.96;100.00
16690;BME280;8458;52.220;9.884;2023-05-07T05:06:10;101216.66;;;9.96;100.00
16690;BME280;8458;52.220;9.884;2023-05-07T05:08:37;101214.97;;;9.95;100.00
16690;BME280;8458;52.220;9.884;2023-05-07T05:11:03;101222.44;;;9.94;100.00
16690;BME280;8458;52.220;9.884;2023-05-07T05:13:30;101218.81;;;9.94;100.00
16690;BME280;8458;52.220;9.884;2023-05-07T05:15:56;101223.88;;;9.97;100.00
16690;BME280;8458;52.220;9.884;2023-05-07T05:18:23;101224.72;;;9.97;100.00
16690;BME280;8458;52.220;9.884;2023-05-07T05:20:51;101230.63;;;10.01;100.00
16690;BME280;8458;52.220;9.884;2023-05-07T05:23:18;101231.69;;;10.00;100.00
16690;BME280;8458;52.220;9.884;2023-05-07T05:25:45;101234.97;;;9.97;100.00
16690;BME280;8458;52.220;9.884;2023-05-07T05:28:11;101238.81;;;9.96;100.00
16690;BME280;8458;52.220;9.884;2023-05-07T05:30:38;101235.44;;;9.94;100.00
16690;BME280;8458;52.220;9.884;2023-05-07T05:33:05;101233.25;;;9.96;100.00
16690;BME280;8458;52.220;9.884;2023-05-07T05:35:31;101236.66;;;9.98;100.00
16690;BME280;8458;52.220;9.884;2023-05-07T05:37:58;101245.47;;;9.95;98.83
16690;BME280;8458;52.220;9.884;2023-05-07T05:40:26;101237.16;;;9.95;98.27
16690;BME280;8458;52.220;9.884;2023-05-07T05:42:52;101247.13;;;9.96;98.28
16690;BME280;8458;52.220;9.884;2023-05-07T05:45:19;101248.22;;;9.95;98.58
16690;BME280;8458;52.220;9.884;2023-05-07T05:47:45;101244.00;;;9.92;98.42
16690;BME280;8458;52.220;9.884;2023-05-07T05:50:11;101255.25;;;9.85;98.17
16690;BME280;8458;52.220;9.884;2023-05-07T05:52:38;101258.59;;;9.87;99.50
16690;BME280;8458;52.220;9.884;2023-05-07T05:55:06;101257.63;;;9.94;98.91
16690;BME280;8458;52.220;9.884;2023-05-07T05:57:34;101252.66;;;9.96;97.87
16690;BME280;8458;52.220;9.884;2023-05-07T06:00:02;101246.53;;;9.94;97.40
16690;BME280;8458;52.220;9.884;2023-05-07T06:02:29;101239.16;;;9.99;97.36
16690;BME280;8458;52.220;9.884;2023-05-07T06:04:55;101243.97;;;10.04;97.43
16690;BME280;8458;52.220;9.884;2023-05-07T06:07:22;101235.66;;;10.04;96.32
16690;BME280;8458;52.220;9.884;2023-05-07T06:09:48;101244.47;;;10.01;96.10
16690;BME280;8458;52.220;9.884;2023-05-07T06:12:15;101244.72;;;9.99;96.22
16690;BME280;8458;52.220;9.884;2023-05-07T06:14:43;101251.09;;;10.00;96.21
16690;BME280;8458;52.220;9.884;2023-05-07T06:17:10;101256.72;;;10.05;96.17
16690;BME280;8458;52.220;9.884;2023-05-07T06:19:36;101252.88;;;10.06;96.51
16690;BME280;8458;52.220;9.884;2023-05-07T06:22:03;101254.66;;;10.12;96.83
16690;BME280;8458;52.220;9.884;2023-05-07T06:24:29;101250.78;;;10.13;95.23
16690;BME280;8458;52.220;9.884;2023-05-07T06:26:56;101248.59;;;10.15;95.36
16690;BME280;8458;52.220;9.884;2023-05-07T06:29:23;101251.63;;;10.14;94.95
16690;BME280;8458;52.220;9.884;2023-05-07T06:31:52;101256.34;;;10.13;94.77
16690;BME280;8458;52.220;9.884;2023-05-07T06:34:18;101249.94;;;10.13;94.61
16690;BME280;8458;52.220;9.884;2023-05-07T06:36:45;101254.16;;;10.15;95.63
16690;BME280;8458;52.220;9.884;2023-05-07T06:39:11;101260.88;;;10.19;95.90
16690;BME280;8458;52.220;9.884;2023-05-07T06:41:38;101253.50;;;10.25;96.15
16690;BME280;8458;52.220;9.884;2023-05-07T06:44:04;101257.22;;;10.31;95.32
16690;BME280;8458;52.220;9.884;2023-05-07T06:46:31;101260.59;;;10.33;94.53
16690;BME280;8458;52.220;9.884;2023-05-07T06:48:58;101262.13;;;10.40;95.50
16690;BME280;8458;52.220;9.884;2023-05-07T06:51:25;101258.59;;;10.45;94.70
16690;BME280;8458;52.220;9.884;2023-05-07T06:53:52;101262.81;;;10.48;93.77
16690;BME280;8458;52.220;9.884;2023-05-07T06:56:18;101266.66;;;10.47;93.39
16690;BME280;8458;52.220;9.884;2023-05-07T06:58:45;101267.53;;;10.47;93.95
16690;BME280;8458;52.220;9.884;2023-05-07T07:01:11;101264.34;;;10.55;94.79
16690;BME280;8458;52.220;9.884;2023-05-07T07:03:37;101269.38;;;10.58;93.40
16690;BME280;8458;52.220;9.884;2023-05-07T07:06:05;101268.25;;;10.59;92.44
16690;BME280;8458;52.220;9.884;2023-05-07T07:08:32;101261.97;;;10.64;93.52
16690;BME280;8458;52.220;9.884;2023-05-07T07:10:59;101267.75;;;10.63;91.64
16690;BME280;8458;52.220;9.884;2023-05-07T07:13:26;101271.16;;;10.65;91.29
16690;BME280;8458;52.220;9.884;2023-05-07T07:15:52;101268.38;;;10.65;91.06
16690;BME280;8458;52.220;9.884;2023-05-07T07:18:19;101260.63;;;10.67;91.95
16690;BME280;8458;52.220;9.884;2023-05-07T07:20:46;101272.06;;;10.70;91.50
16690;BME280;8458;52.220;9.884;2023-05-07T07:23:13;101274.56;;;10.72;91.08
16690;BME280;8458;52.220;9.884;2023-05-07T07:25:40;101278.03;;;10.79;90.13
16690;BME280;8458;52.220;9.884;2023-05-07T07:28:06;101273.44;;;10.85;90.20
16690;BME280;8458;52.220;9.884;2023-05-07T07:30:33;101277.34;;;10.89;90.58
16690;BME280;8458;52.220;9.884;2023-05-07T07:33:00;101271.91;;;10.94;91.12
16690;BME280;8458;52.220;9.884;2023-05-07T07:35:28;101278.97;;;11.02;91.02
16690;BME280;8458;52.220;9.884;2023-05-07T07:37:54;101274.00;;;11.04;90.11
16690;BME280;8458;52.220;9.884;2023-05-07T07:40:22;101273.22;;;11.08;89.51
16690;BME280;8458;52.220;9.884;2023-05-07T07:42:49;101267.69;;;11.08;88.85
16690;BME280;8458;52.220;9.884;2023-05-07T07:45:15;101274.22;;;11.19;88.34
16690;BME280;8458;52.220;9.884;2023-05-07T07:47:42;101277.59;;;11.21;87.66
16690;BME280;8458;52.220;9.884;2023-05-07T07:50:09;101273.53;;;11.29;88.85
16690;BME280;8458;52.220;9.884;2023-05-07T07:52:36;101275.63;;;11.39;88.85
16690;BME280;8458;52.220;9.884;2023-05-07T07:55:03;101286.28;;;11.47;89.23
16690;BME280;8458;52.220;9.884;2023-05-07T07:57:31;101285.78;;;11.50;87.20
16690;BME280;8458;52.220;9.884;2023-05-07T07:59:57;101294.69;;;11.52;87.84
16690;BME280;8458;52.220;9.884;2023-05-07T08:02:24;101289.13;;;11.52;87.64
16690;BME280;8458;52.220;9.884;2023-05-07T08:04:51;101291.41;;;11.55;87.38
16690;BME280;8458;52.220;9.884;2023-05-07T08:07:18;101291.06;;;11.52;87.32
16690;BME280;8458;52.220;9.884;2023-05-07T08:09:46;101295.81;;;11.51;86.85
16690;BME280;8458;52.220;9.884;2023-05-07T08:12:13;101300.75;;;11.49;87.37
16690;BME280;8458;52.220;9.884;2023-05-07T08:14:41;101295.28;;;11.54;88.55
16690;BME280;8458;52.220;9.884;2023-05-07T08:17:07;101301.34;;;11.51;87.01
16690;BME280;8458;52.220;9.884;2023-05-07T08:19:34;101308.50;;;11.47;86.27
16690;BME280;8458;52.220;9.884;2023-05-07T08:22:02;101302.03;;;11.41;85.92
16690;BME280;8458;52.220;9.884;2023-05-07T08:24:29;101309.84;;;11.44;87.66
16690;BME280;8458;52.220;9.884;2023-05-07T08:26:55;101308.19;;;11.43;87.06
16690;BME280;8458;52.220;9.884;2023-05-07T08:29:22;101303.00;;;11.52;88.43
16690;BME280;8458;52.220;9.884;2023-05-07T08:31:49;101306.66;;;11.53;86.90
16690;BME280;8458;52.220;9.884;2023-05-07T08:34:16;101310.31;;;11.58;87.23
16690;BME280;8458;52.220;9.884;2023-05-07T08:36:43;101312.53;;;11.56;85.13
16690;BME280;8458;52.220;9.884;2023-05-07T08:39:09;101310.84;;;11.55;84.87
16690;BME280;8458;52.220;9.884;2023-05-07T08:41:35;101312.22;;;11.53;85.41
16690;BME280;8458;52.220;9.884;2023-05-07T08:44:03;101319.09;;;11.50;85.98
16690;BME280;8458;52.220;9.884;2023-05-07T08:46:32;101320.97;;;11.44;85.55
16690;BME280;8458;52.220;9.884;2023-05-07T08:49:00;101318.13;;;11.39;85.89
16690;BME280;8458;52.220;9.884;2023-05-07T08:51:27;101322.84;;;11.39;87.05
16690;BME280;8458;52.220;9.884;2023-05-07T08:53:53;101319.56;;;11.42;87.11
16690;BME280;8458;52.220;9.884;2023-05-07T08:56:20;101321.22;;;11.43;87.53
16690;BME280;8458;52.220;9.884;2023-05-07T08:58:47;101321.81;;;11.45;87.31
16690;BME280;8458;52.220;9.884;2023-05-07T09:01:15;101320.28;;;11.54;89.26
16690;BME280;8458;52.220;9.884;2023-05-07T09:03:44;101317.06;;;11.62;89.34
16690;BME280;8458;52.220;9.884;2023-05-07T09:06:13;101312.69;;;11.66;87.42
16690;BME280;8458;52.220;9.884;2023-05-07T09:08:40;101313.50;;;11.67;85.85
16690;BME280;8458;52.220;9.884;2023-05-07T09:11:06;101321.91;;;11.72;85.96
16690;BME280;8458;52.220;9.884;2023-05-07T09:13:33;101312.16;;;11.70;86.47
16690;BME280;8458;52.220;9.884;2023-05-07T09:16:09;101316.03;;;11.69;85.98
16690;BME280;8458;52.220;9.884;2023-05-07T09:18:40;101317.13;;;11.68;86.32
16690;BME280;8458;52.220;9.884;2023-05-07T09:21:09;101314.34;;;11.68;86.41
16690;BME280;8458;52.220;9.884;2023-05-07T09:23:37;101306.63;;;11.70;86.79
16690;BME280;8458;52.220;9.884;2023-05-07T09:26:04;101303.88;;;11.75;87.22
16690;BME280;8458;52.220;9.884;2023-05-07T09:28:33;101306.22;;;11.83;87.30
16690;BME280;8458;52.220;9.884;2023-05-07T09:31:00;101301.16;;;11.80;85.72
16690;BME280;8458;52.220;9.884;2023-05-07T09:33:27;101299.25;;;11.80;86.35
16690;BME280;8458;52.220;9.884;2023-05-07T09:35:54;101300.09;;;11.81;86.43
16690;BME280;8458;52.220;9.884;2023-05-07T09:38:21;101311.78;;;11.83;86.27
16690;BME280;8458;52.220;9.884;2023-05-07T09:41:01;101317.31;;;11.83;86.72
16690;BME280;8458;52.220;9.884;2023-05-07T09:43:31;101316.19;;;11.79;86.23
16690;BME280;8458;52.220;9.884;2023-05-07T09:45:58;101308.94;;;11.78;86.60
16690;BME280;8458;52.220;9.884;2023-05-07T09:48:29;101300.34;;;11.79;87.20
16690;BME280;8458;52.220;9.884;2023-05-07T09:50:57;101311.19;;;11.81;86.35
16690;BME280;8458;52.220;9.884;2023-05-07T09:53:25;101320.97;;;11.83;86.57
16690;BME280;8458;52.220;9.884;2023-05-07T09:55:53;101315.72;;;11.87;86.03
16690;BME280;8458;52.220;9.884;2023-05-07T09:58:20;101309.38;;;11.92;87.27
16690;BME280;8458;52.220;9.884;2023-05-07T10:00:49;101306.88;;;11.90;85.92
16690;BME280;8458;52.220;9.884;2023-05-07T10:03:16;101312.44;;;11.90;86.14
16690;BME280;8458;52.220;9.884;2023-05-07T10:05:47;101311.41;;;11.96;86.53
16690;BME280;8458;52.220;9.884;2023-05-07T10:08:14;101315.03;;;11.97;84.86
16690;BME280;8458;52.220;9.884;2023-05-07T10:10:42;101310.91;;;11.99;85.33
16690;BME280;8458;52.220;9.884;2023-05-07T10:13:10;101312.03;;;12.04;85.45
16690;BME280;8458;52.220;9.884;2023-05-07T10:15:38;101317.09;;;12.07;86.14
16690;BME280;8458;52.220;9.884;2023-05-07T10:18:06;101319.59;;;12.08;85.90
16690;BME280;8458;52.220;9.884;2023-05-07T10:20:33;101326.84;;;12.09;85.74
16690;BME280;8458;52.220;9.884;2023-05-07T10:23:04;101319.34;;;12.10;84.96
16690;BME280;8458;52.220;9.884;2023-05-07T10:25:32;101318.81;;;12.13;85.27
16690;BME280;8458;52.220;9.884;2023-05-07T10:28:02;101330.59;;;12.20;85.49
16690;BME280;8458;52.220;9.884;2023-05-07T10:30:39;101324.47;;;12.18;84.76
16690;BME280;8458;52.220;9.884;2023-05-07T10:33:15;101330.28;;;12.16;84.62
16690;BME280;8458;52.220;9.884;2023-05-07T10:35:44;101327.81;;;12.20;85.10
16690;BME280;8458;52.220;9.884;2023-05-07T10:38:11;101329.03;;;12.29;86.18
16690;BME280;8458;52.220;9.884;2023-05-07T10:40:37;101332.97;;;12.33;86.34
16690;BME280;8458;52.220;9.884;2023-05-07T10:43:05;101324.69;;;12.38;86.33
16690;BME280;8458;52.220;9.884;2023-05-07T10:45:33;101331.09;;;12.39;84.68
16690;BME280;8458;52.220;9.884;2023-05-07T10:48:09;101324.16;;;12.42;84.93
16690;BME280;8458;52.220;9.884;2023-05-07T10:50:37;101335.84;;;12.44;84.70
16690;BME280;8458;52.220;9.884;2023-05-07T10:53:23;101336.47;;;12.46;83.31
16690;BME280;8458;52.220;9.884;2023-05-07T10:56:23;101341.50;;;12.49;82.96
16690;BME280;8458;52.220;9.884;2023-05-07T10:58:38;101340.97;;;12.52;84.01
16690;BME280;8458;52.220;9.884;2023-05-07T11:01:06;101332.03;;;12.50;83.39
16690;BME280;8458;52.220;9.884;2023-05-07T11:03:33;101339.94;;;12.58;83.54
16690;BME280;8458;52.220;9.884;2023-05-07T11:06:10;101334.94;;;12.60;82.69
16690;BME280;8458;52.220;9.884;2023-05-07T11:08:53;101347.22;;;12.64;83.23
16690;BME280;8458;52.220;9.884;2023-05-07T11:11:19;101335.84;;;12.66;82.55
16690;BME280;8458;52.220;9.884;2023-05-07T11:13:47;101336.66;;;12.66;83.09
16690;BME280;8458;52.220;9.884;2023-05-07T11:16:19;101338.66;;;12.71;82.86
16690;BME280;8458;52.220;9.884;2023-05-07T11:18:47;101332.88;;;12.78;84.04
16690;BME280;8458;52.220;9.884;2023-05-07T11:21:31;101346.31;;;12.86;82.85
16690;BME280;8458;52.220;9.884;2023-05-07T11:23:59;101324.59;;;12.83;82.19
16690;BME280;8458;52.220;9.884;2023-05-07T11:26:27;101336.31;;;12.90;82.00
16690;BME280;8458;52.220;9.884;2023-05-07T11:28:54;101333.81;;;12.88;81.09
16690;BME280;8458;52.220;9.884;2023-05-07T11:31:24;101332.44;;;12.91;81.58
16690;BME280;8458;52.220;9.884;2023-05-07T11:33:52;101333.06;;;12.98;81.85
16690;BME280;8458;52.220;9.884;2023-05-07T11:36:20;101341.97;;;13.00;80.83
16690;BME280;8458;52.220;9.884;2023-05-07T11:38:46;101340.28;;;12.99;80.61
16690;BME280;8458;52.220;9.884;2023-05-07T11:41:13;101331.47;;;13.07;81.79
16690;BME280;8458;52.220;9.884;2023-05-07T11:43:54;101342.06;;;13.11;81.97
16690;BME280;8458;52.220;9.884;2023-05-07T11:46:22;101335.97;;;13.14;81.82
16690;BME280;8458;52.220;9.884;2023-05-07T11:48:49;101338.78;;;13.19;82.58
16690;BME280;8458;52.220;9.884;2023-05-07T11:51:19;101338.31;;;13.32;82.94
16690;BME280;8458;52.220;9.884;2023-05-07T11:53:45;101330.59;;;13.39;79.73
16690;BME280;8458;52.220;9.884;2023-05-07T11:56:13;101330.06;;;13.42;78.54
16690;BME280;8458;52.220;9.884;2023-05-07T11:58:41;101335.13;;;13.51;78.65
16690;BME280;8458;52.220;9.884;2023-05-07T12:01:08;101331.59;;;13.60;79.39
16690;BME280;8458;52.220;9.884;2023-05-07T12:03:37;101335.53;;;13.70;78.05
16690;BME280;8458;52.220;9.884;2023-05-07T12:06:06;101331.94;;;13.74;77.09
16690;BME280;8458;52.220;9.884;2023-05-07T12:08:32;101338.38;;;13.80;77.80
16690;BME280;8458;52.220;9.884;2023-05-07T12:10:59;101341.50;;;13.89;78.54
16690;BME280;8458;52.220;9.884;2023-05-07T12:13:25;101340.38;;;13.90;77.46
16690;BME280;8458;52.220;9.884;2023-05-07T12:15:53;101347.06;;;13.89;76.66
16690;BME280;8458;52.220;9.884;2023-05-07T12:18:19;101345.69;;;13.91;78.10
16690;BME280;8458;52.220;9.884;2023-05-07T12:20:48;101344.63;;;14.03;79.42
16690;BME280;8458;52.220;9.884;2023-05-07T12:23:15;101351.63;;;14.05;77.38
16690;BME280;8458;52.220;9.884;2023-05-07T12:25:43;101331.78;;;14.02;77.20
16690;BME280;8458;52.220;9.884;2023-05-07T12:28:12;101344.34;;;14.04;75.82
16690;BME280;8458;52.220;9.884;2023-05-07T12:30:39;101346.03;;;14.05;75.93
16690;BME280;8458;52.220;9.884;2023-05-07T12:33:06;101347.13;;;13.99;75.79
16690;BME280;8458;52.220;9.884;2023-05-07T12:35:41;101343.19;;;13.95;74.82
16690;BME280;8458;52.220;9.884;2023-05-07T12:38:09;101347.13;;;13.99;77.92
16690;BME280;8458;52.220;9.884;2023-05-07T12:40:37;101349.38;;;14.02;77.45
16690;BME280;8458;52.220;9.884;2023-05-07T12:43:03;101342.13;;;14.06;76.88
16690;BME280;8458;52.220;9.884;2023-05-07T12:45:30;101347.13;;;14.04;77.56
16690;BME280;8458;52.220;9.884;2023-05-07T12:48:01;101336.25;;;14.03;75.95
16690;BME280;8458;52.220;9.884;2023-05-07T12:50:31;101326.47;;;14.00;75.10
16690;BME280;8458;52.220;9.884;2023-05-07T12:52:57;101337.97;;;14.09;78.39
16690;BME280;8458;52.220;9.884;2023-05-07T12:55:25;101338.25;;;14.12;78.04
16690;BME280;8458;52.220;9.884;2023-05-07T12:57:52;101336.59;;;14.16;79.52
16690;BME280;8458;52.220;9.884;2023-05-07T13:00:32;101333.25;;;14.14;76.19